sensor_id;sensor_type;location;lat;lon;timestamp;P1;durP1;ratioP1;P2;durP2;ratioP2
69970;SDS011;57301;50.328;8.542;2022-12-29T00:01:58;4.10;;;2.63;;
69970;SDS011;57301;50.328;8.542;2022-12-29T00:04:25;5.30;;;3.28;;
69970;SDS011;57301;50.328;8.542;2022-12-29T00:06:51;5.53;;;2.77;;
69970;SDS011;57301;50.328;8.542;2022-12-29T00:09:19;5.82;;;3.03;;
69970;SDS011;57301;50.328;8.542;2022-12-29T00:11:45;5.35;;;2.90;;
69970;SDS011;57301;50.328;8.542;2022-12-29T00:14:12;7.20;;;3.10;;
69970;SDS011;57301;50.328;8.542;2022-12-29T00:16:57;6.38;;;3.35;;
69970;SDS011;57301;50.328;8.542;2022-12-29T00:19:24;6.20;;;2.90;;
69970;SDS011;57301;50.328;8.542;2022-12-29T00:22:10;5.78;;;3.38;;
69970;SDS011;57301;50.328;8.542;2022-12-29T00:24:56;5.53;;;3.03;;
69970;SDS011;57301;50.328;8.542;2022-12-29T00:27:31;5.47;;;3.33;;
69970;SDS011;57301;50.328;8.542;2022-12-29T00:30:17;5.03;;;2.88;;
69970;SDS011;57301;50.328;8.542;2022-12-29T00:33:37;5.63;;;3.47;;
69970;SDS011;57301;50.328;8.542;2022-12-29T00:36:23;7.07;;;3.20;;
69970;SDS011;57301;50.328;8.542;2022-12-29T00:39:04;7.32;;;3.47;;
69970;SDS011;57301;50.328;8.542;2022-12-29T00:41:53;6.25;;;2.90;;
69970;SDS011;57301;50.328;8.542;2022-12-29T00:44:38;5.65;;;2.80;;
69970;SDS011;57301;50.328;8.542;2022-12-29T00:47:04;6.33;;;3.20;;
69970;SDS011;57301;50.328;8.542;2022-12-29T00:49:31;5.13;;;2.95;;
69970;SDS011;57301;50.328;8.542;2022-12-29T00:52:08;6.07;;;2.95;;
69970;SDS011;57301;50.328;8.542;2022-12-29T00:54:37;5.57;;;2.40;;
69970;SDS011;57301;50.328;8.542;2022-12-29T00:57:06;4.75;;;2.80;;
69970;SDS011;57301;50.328;8.542;2022-12-29T00:59:38;4.53;;;2.67;;
69970;SDS011;57301;50.328;8.542;2022-12-29T01:02:06;5.15;;;2.95;;
69970;SDS011;57301;50.328;8.542;2022-12-29T01:04:34;6.00;;;2.92;;
69970;SDS011;57301;50.328;8.542;2022-12-29T01:07:00;4.55;;;3.00;;
69970;SDS011;57301;50.328;8.542;2022-12-29T01:09:27;7.63;;;3.10;;
69970;SDS011;57301;50.328;8.542;2022-12-29T01:12:12;5.17;;;2.57;;
69970;SDS011;57301;50.328;8.542;2022-12-29T01:14:39;5.65;;;2.50;;
69970;SDS011;57301;50.328;8.542;2022-12-29T01:17:06;4.60;;;2.72;;
69970;SDS011;57301;50.328;8.542;2022-12-29T01:19:32;4.50;;;2.63;;
69970;SDS011;57301;50.328;8.542;2022-12-29T01:21:59;4.70;;;2.58;;
69970;SDS011;57301;50.328;8.542;2022-12-29T01:24:26;4.30;;;2.50;;
69970;SDS011;57301;50.328;8.542;2022-12-29T01:26:52;4.18;;;2.40;;
69970;SDS011;57301;50.328;8.542;2022-12-29T01:29:20;4.10;;;2.50;;
69970;SDS011;57301;50.328;8.542;2022-12-29T01:31:47;3.83;;;2.42;;
69970;SDS011;57301;50.328;8.542;2022-12-29T01:34:15;5.85;;;2.33;;
69970;SDS011;57301;50.328;8.542;2022-12-29T01:36:43;4.57;;;2.50;;
69970;SDS011;57301;50.328;8.542;2022-12-29T01:39:10;3.20;;;2.05;;
69970;SDS011;57301;50.328;8.542;2022-12-29T01:41:36;5.68;;;2.13;;
69970;SDS011;57301;50.328;8.542;2022-12-29T01:44:39;5.88;;;2.30;;
69970;SDS011;57301;50.328;8.542;2022-12-29T01:47:15;3.45;;;2.03;;
69970;SDS011;57301;50.328;8.542;2022-12-29T01:49:48;3.93;;;2.07;;
69970;SDS011;57301;50.328;8.542;2022-12-29T01:52:16;4.68;;;2.30;;
69970;SDS011;57301;50.328;8.542;2022-12-29T01:54:43;5.07;;;2.17;;
69970;SDS011;57301;50.328;8.542;2022-12-29T01:57:17;6.30;;;2.25;;
69970;SDS011;57301;50.328;8.542;2022-12-29T02:00:02;4.45;;;2.60;;
69970;SDS011;57301;50.328;8.542;2022-12-29T02:02:31;4.23;;;2.10;;
69970;SDS011;57301;50.328;8.542;2022-12-29T02:04:59;3.30;;;1.90;;
69970;SDS011;57301;50.328;8.542;2022-12-29T02:07:32;3.25;;;2.10;;
69970;SDS011;57301;50.328;8.542;2022-12-29T02:09:59;4.43;;;2.10;;
69970;SDS011;57301;50.328;8.542;2022-12-29T02:12:27;3.45;;;2.08;;
69970;SDS011;57301;50.328;8.542;2022-12-29T02:14:55;3.53;;;2.13;;
69970;SDS011;57301;50.328;8.542;2022-12-29T02:25:16;3.03;;;1.80;;
69970;SDS011;57301;50.328;8.542;2022-12-29T02:31:05;2.97;;;1.60;;
69970;SDS011;57301;50.328;8.542;2022-12-29T02:39:15;3.58;;;1.90;;
69970;SDS011;57301;50.328;8.542;2022-12-29T02:44:35;3.95;;;2.00;;
69970;SDS011;57301;50.328;8.542;2022-12-29T02:47:19;2.88;;;1.60;;
69970;SDS011;57301;50.328;8.542;2022-12-29T02:52:38;3.47;;;1.90;;
69970;SDS011;57301;50.328;8.542;2022-12-29T02:55:11;3.10;;;1.67;;
69970;SDS011;57301;50.328;8.542;2022-12-29T02:57:37;3.10;;;2.15;;
69970;SDS011;57301;50.328;8.542;2022-12-29T03:00:05;3.15;;;2.00;;
69970;SDS011;57301;50.328;8.542;2022-12-29T03:11:32;4.65;;;2.08;;
69970;SDS011;57301;50.328;8.542;2022-12-29T03:17:55;2.90;;;1.80;;
69970;SDS011;57301;50.328;8.542;2022-12-29T03:20:26;2.92;;;1.83;;
69970;SDS011;57301;50.328;8.542;2022-12-29T03:23:18;2.70;;;1.70;;
69970;SDS011;57301;50.328;8.542;2022-12-29T03:25:48;2.50;;;1.60;;
69970;SDS011;57301;50.328;8.542;2022-12-29T03:28:20;2.40;;;1.60;;
69970;SDS011;57301;50.328;8.542;2022-12-29T03:30:50;3.38;;;1.30;;
69970;SDS011;57301;50.328;8.542;2022-12-29T03:33:21;2.58;;;1.60;;
69970;SDS011;57301;50.328;8.542;2022-12-29T03:35:50;2.90;;;1.40;;
69970;SDS011;57301;50.328;8.542;2022-12-29T03:38:25;2.30;;;1.17;;
69970;SDS011;57301;50.328;8.542;2022-12-29T03:41:00;2.97;;;1.40;;
69970;SDS011;57301;50.328;8.542;2022-12-29T03:43:30;3.15;;;1.48;;
69970;SDS011;57301;50.328;8.542;2022-12-29T03:45:57;2.10;;;1.10;;
69970;SDS011;57301;50.328;8.542;2022-12-29T03:48:23;4.20;;;1.10;;
69970;SDS011;57301;50.328;8.542;2022-12-29T03:50:50;2.42;;;1.30;;
69970;SDS011;57301;50.328;8.542;2022-12-29T03:53:16;2.50;;;1.35;;
69970;SDS011;57301;50.328;8.542;2022-12-29T03:55:43;3.75;;;1.20;;
69970;SDS011;57301;50.328;8.542;2022-12-29T03:58:10;2.70;;;1.40;;
69970;SDS011;57301;50.328;8.542;2022-12-29T04:00:36;2.37;;;1.20;;
69970;SDS011;57301;50.328;8.542;2022-12-29T04:03:03;2.28;;;1.20;;
69970;SDS011;57301;50.328;8.542;2022-12-29T04:05:29;2.30;;;1.40;;
69970;SDS011;57301;50.328;8.542;2022-12-29T04:07:58;2.67;;;1.50;;
69970;SDS011;57301;50.328;8.542;2022-12-29T04:10:24;2.33;;;1.40;;
69970;SDS011;57301;50.328;8.542;2022-12-29T04:12:50;2.47;;;1.40;;
69970;SDS011;57301;50.328;8.542;2022-12-29T04:15:17;2.40;;;1.50;;
69970;SDS011;57301;50.328;8.542;2022-12-29T04:17:44;3.45;;;1.52;;
69970;SDS011;57301;50.328;8.542;2022-12-29T04:20:10;3.33;;;1.63;;
69970;SDS011;57301;50.328;8.542;2022-12-29T04:22:59;4.03;;;2.10;;
69970;SDS011;57301;50.328;8.542;2022-12-29T04:25:26;4.57;;;1.80;;
69970;SDS011;57301;50.328;8.542;2022-12-29T04:27:53;2.95;;;1.80;;
69970;SDS011;57301;50.328;8.542;2022-12-29T04:30:20;5.47;;;2.20;;
69970;SDS011;57301;50.328;8.542;2022-12-29T04:32:46;3.42;;;1.80;;
69970;SDS011;57301;50.328;8.542;2022-12-29T04:35:13;3.35;;;2.03;;
69970;SDS011;57301;50.328;8.542;2022-12-29T04:37:39;4.07;;;1.90;;
69970;SDS011;57301;50.328;8.542;2022-12-29T04:40:06;5.05;;;2.00;;
69970;SDS011;57301;50.328;8.542;2022-12-29T04:42:33;5.75;;;1.98;;
69970;SDS011;57301;50.328;8.542;2022-12-29T04:44:59;4.15;;;2.17;;
69970;SDS011;57301;50.328;8.542;2022-12-29T04:47:26;3.30;;;2.00;;
69970;SDS011;57301;50.328;8.542;2022-12-29T04:49:52;4.57;;;2.20;;
69970;SDS011;57301;50.328;8.542;2022-12-29T04:52:18;4.13;;;1.90;;
69970;SDS011;57301;50.328;8.542;2022-12-29T04:54:45;3.53;;;1.98;;
69970;SDS011;57301;50.328;8.542;2022-12-29T04:57:11;2.72;;;1.60;;
69970;SDS011;57301;50.328;8.542;2022-12-29T04:59:37;3.10;;;1.80;;
69970;SDS011;57301;50.328;8.542;2022-12-29T05:02:04;2.83;;;1.73;;
69970;SDS011;57301;50.328;8.542;2022-12-29T05:04:31;2.92;;;1.73;;
69970;SDS011;57301;50.328;8.542;2022-12-29T05:06:57;6.65;;;2.78;;
69970;SDS011;57301;50.328;8.542;2022-12-29T05:09:23;5.05;;;2.10;;
69970;SDS011;57301;50.328;8.542;2022-12-29T05:11:50;4.65;;;2.15;;
69970;SDS011;57301;50.328;8.542;2022-12-29T05:14:16;3.73;;;2.20;;
69970;SDS011;57301;50.328;8.542;2022-12-29T05:16:43;3.90;;;2.10;;
69970;SDS011;57301;50.328;8.542;2022-12-29T05:19:10;5.18;;;2.28;;
69970;SDS011;57301;50.328;8.542;2022-12-29T05:21:36;4.25;;;2.17;;
69970;SDS011;57301;50.328;8.542;2022-12-29T05:24:03;3.30;;;2.00;;
69970;SDS011;57301;50.328;8.542;2022-12-29T05:26:29;4.87;;;2.57;;
69970;SDS011;57301;50.328;8.542;2022-12-29T05:28:56;4.35;;;2.40;;
69970;SDS011;57301;50.328;8.542;2022-12-29T05:31:22;4.82;;;2.25;;
69970;SDS011;57301;50.328;8.542;2022-12-29T05:33:49;3.97;;;2.25;;
69970;SDS011;57301;50.328;8.542;2022-12-29T05:36:15;5.47;;;2.67;;
69970;SDS011;57301;50.328;8.542;2022-12-29T05:38:43;3.67;;;2.10;;
69970;SDS011;57301;50.328;8.542;2022-12-29T05:41:10;3.40;;;2.08;;
69970;SDS011;57301;50.328;8.542;2022-12-29T05:43:37;6.72;;;2.22;;
69970;SDS011;57301;50.328;8.542;2022-12-29T05:46:03;3.90;;;1.88;;
69970;SDS011;57301;50.328;8.542;2022-12-29T05:48:30;3.22;;;1.90;;
69970;SDS011;57301;50.328;8.542;2022-12-29T05:51:03;2.93;;;1.70;;
69970;SDS011;57301;50.328;8.542;2022-12-29T05:53:30;3.58;;;1.95;;
69970;SDS011;57301;50.328;8.542;2022-12-29T05:55:56;2.70;;;1.60;;
69970;SDS011;57301;50.328;8.542;2022-12-29T05:58:23;3.47;;;1.60;;
69970;SDS011;57301;50.328;8.542;2022-12-29T06:00:49;3.50;;;1.70;;
69970;SDS011;57301;50.328;8.542;2022-12-29T06:03:17;5.03;;;2.07;;
69970;SDS011;57301;50.328;8.542;2022-12-29T06:05:46;3.53;;;1.70;;
69970;SDS011;57301;50.328;8.542;2022-12-29T06:08:13;2.70;;;1.60;;
69970;SDS011;57301;50.328;8.542;2022-12-29T06:10:39;3.20;;;1.90;;
69970;SDS011;57301;50.328;8.542;2022-12-29T06:13:06;4.15;;;2.05;;
69970;SDS011;57301;50.328;8.542;2022-12-29T06:15:33;4.37;;;1.80;;
69970;SDS011;57301;50.328;8.542;2022-12-29T06:17:59;4.95;;;2.00;;
69970;SDS011;57301;50.328;8.542;2022-12-29T06:20:26;4.28;;;2.08;;
69970;SDS011;57301;50.328;8.542;2022-12-29T06:22:53;3.17;;;1.77;;
69970;SDS011;57301;50.328;8.542;2022-12-29T06:25:19;4.40;;;1.85;;
69970;SDS011;57301;50.328;8.542;2022-12-29T06:27:46;3.90;;;1.57;;
69970;SDS011;57301;50.328;8.542;2022-12-29T06:30:12;3.30;;;1.80;;
69970;SDS011;57301;50.328;8.542;2022-12-29T06:32:39;9.07;;;4.35;;
69970;SDS011;57301;50.328;8.542;2022-12-29T06:35:05;4.45;;;2.20;;
69970;SDS011;57301;50.328;8.542;2022-12-29T06:37:32;5.15;;;2.25;;
69970;SDS011;57301;50.328;8.542;2022-12-29T06:39:59;3.50;;;2.00;;
69970;SDS011;57301;50.328;8.542;2022-12-29T06:42:25;5.47;;;1.90;;
69970;SDS011;57301;50.328;8.542;2022-12-29T06:44:52;4.80;;;1.85;;
69970;SDS011;57301;50.328;8.542;2022-12-29T06:47:18;3.78;;;1.92;;
69970;SDS011;57301;50.328;8.542;2022-12-29T06:49:45;3.97;;;1.90;;
69970;SDS011;57301;50.328;8.542;2022-12-29T06:52:11;3.10;;;1.70;;
69970;SDS011;57301;50.328;8.542;2022-12-29T06:54:39;3.92;;;2.00;;
69970;SDS011;57301;50.328;8.542;2022-12-29T06:57:05;4.78;;;2.47;;
69970;SDS011;57301;50.328;8.542;2022-12-29T06:59:32;3.30;;;1.80;;
69970;SDS011;57301;50.328;8.542;2022-12-29T07:01:59;4.32;;;2.20;;
69970;SDS011;57301;50.328;8.542;2022-12-29T07:04:28;2.80;;;1.60;;
69970;SDS011;57301;50.328;8.542;2022-12-29T07:06:55;3.25;;;1.60;;
69970;SDS011;57301;50.328;8.542;2022-12-29T07:09:21;3.42;;;1.50;;
69970;SDS011;57301;50.328;8.542;2022-12-29T07:11:48;2.88;;;1.60;;
69970;SDS011;57301;50.328;8.542;2022-12-29T07:14:14;2.50;;;1.40;;
69970;SDS011;57301;50.328;8.542;2022-12-29T07:16:42;2.80;;;1.50;;
69970;SDS011;57301;50.328;8.542;2022-12-29T07:19:08;3.28;;;1.25;;
69970;SDS011;57301;50.328;8.542;2022-12-29T07:21:35;3.05;;;1.73;;
69970;SDS011;57301;50.328;8.542;2022-12-29T07:24:01;3.95;;;1.85;;
69970;SDS011;57301;50.328;8.542;2022-12-29T07:26:28;3.55;;;1.83;;
69970;SDS011;57301;50.328;8.542;2022-12-29T07:29:02;5.40;;;2.13;;
69970;SDS011;57301;50.328;8.542;2022-12-29T07:31:29;4.45;;;1.90;;
69970;SDS011;57301;50.328;8.542;2022-12-29T07:33:55;4.05;;;2.50;;
69970;SDS011;57301;50.328;8.542;2022-12-29T07:36:22;4.85;;;2.30;;
69970;SDS011;57301;50.328;8.542;2022-12-29T07:38:52;4.68;;;2.30;;
69970;SDS011;57301;50.328;8.542;2022-12-29T07:41:18;3.47;;;2.00;;
69970;SDS011;57301;50.328;8.542;2022-12-29T07:43:46;3.63;;;2.13;;
69970;SDS011;57301;50.328;8.542;2022-12-29T07:46:14;3.88;;;2.20;;
69970;SDS011;57301;50.328;8.542;2022-12-29T07:49:01;4.50;;;2.13;;
69970;SDS011;57301;50.328;8.542;2022-12-29T07:51:27;4.35;;;2.22;;
69970;SDS011;57301;50.328;8.542;2022-12-29T07:53:53;4.40;;;2.00;;
69970;SDS011;57301;50.328;8.542;2022-12-29T07:56:20;5.90;;;2.40;;
69970;SDS011;57301;50.328;8.542;2022-12-29T07:58:46;4.40;;;2.10;;
69970;SDS011;57301;50.328;8.542;2022-12-29T08:01:13;3.80;;;2.00;;
69970;SDS011;57301;50.328;8.542;2022-12-29T08:03:40;4.20;;;2.30;;
69970;SDS011;57301;50.328;8.542;2022-12-29T08:06:10;3.63;;;2.30;;
69970;SDS011;57301;50.328;8.542;2022-12-29T08:08:37;5.50;;;2.30;;
69970;SDS011;57301;50.328;8.542;2022-12-29T08:11:04;3.28;;;2.00;;
69970;SDS011;57301;50.328;8.542;2022-12-29T08:13:31;6.40;;;2.40;;
69970;SDS011;57301;50.328;8.542;2022-12-29T08:15:57;4.35;;;2.10;;
69970;SDS011;57301;50.328;8.542;2022-12-29T08:18:25;6.30;;;2.50;;
69970;SDS011;57301;50.328;8.542;2022-12-29T08:20:51;4.25;;;2.20;;
69970;SDS011;57301;50.328;8.542;2022-12-29T08:23:21;4.03;;;2.22;;
69970;SDS011;57301;50.328;8.542;2022-12-29T08:25:56;3.95;;;2.10;;
69970;SDS011;57301;50.328;8.542;2022-12-29T08:28:23;3.65;;;1.88;;
69970;SDS011;57301;50.328;8.542;2022-12-29T08:30:49;3.50;;;2.13;;
69970;SDS011;57301;50.328;8.542;2022-12-29T08:33:16;4.60;;;2.40;;
69970;SDS011;57301;50.328;8.542;2022-12-29T08:35:42;3.30;;;1.90;;
69970;SDS011;57301;50.328;8.542;2022-12-29T08:38:09;4.65;;;2.33;;
69970;SDS011;57301;50.328;8.542;2022-12-29T08:40:37;4.47;;;2.20;;
69970;SDS011;57301;50.328;8.542;2022-12-29T08:43:04;6.03;;;2.40;;
69970;SDS011;57301;50.328;8.542;2022-12-29T08:45:31;4.53;;;2.30;;
69970;SDS011;57301;50.328;8.542;2022-12-29T08:47:58;4.05;;;2.05;;
69970;SDS011;57301;50.328;8.542;2022-12-29T08:50:24;6.90;;;2.90;;
69970;SDS011;57301;50.328;8.542;2022-12-29T08:52:51;5.40;;;2.63;;
69970;SDS011;57301;50.328;8.542;2022-12-29T08:55:17;4.33;;;2.23;;
69970;SDS011;57301;50.328;8.542;2022-12-29T08:57:44;5.38;;;2.63;;
69970;SDS011;57301;50.328;8.542;2022-12-29T09:00:10;4.50;;;2.25;;
69970;SDS011;57301;50.328;8.542;2022-12-29T09:02:37;4.82;;;2.08;;
69970;SDS011;57301;50.328;8.542;2022-12-29T09:05:04;4.75;;;2.33;;
69970;SDS011;57301;50.328;8.542;2022-12-29T09:07:31;5.07;;;2.57;;
69970;SDS011;57301;50.328;8.542;2022-12-29T09:09:58;6.90;;;2.72;;
69970;SDS011;57301;50.328;8.542;2022-12-29T09:12:24;7.10;;;3.05;;
69970;SDS011;57301;50.328;8.542;2022-12-29T09:14:55;6.38;;;3.05;;
69970;SDS011;57301;50.328;8.542;2022-12-29T09:17:21;5.68;;;3.00;;
69970;SDS011;57301;50.328;8.542;2022-12-29T09:20:06;5.47;;;2.80;;
69970;SDS011;57301;50.328;8.542;2022-12-29T09:22:35;5.70;;;3.20;;
69970;SDS011;57301;50.328;8.542;2022-12-29T09:25:02;5.05;;;3.10;;
69970;SDS011;57301;50.328;8.542;2022-12-29T09:27:29;5.43;;;3.10;;
69970;SDS011;57301;50.328;8.542;2022-12-29T09:29:56;4.82;;;2.83;;
69970;SDS011;57301;50.328;8.542;2022-12-29T09:32:23;5.73;;;3.10;;
69970;SDS011;57301;50.328;8.542;2022-12-29T09:34:53;6.38;;;2.60;;
69970;SDS011;57301;50.328;8.542;2022-12-29T09:37:20;4.82;;;2.72;;
69970;SDS011;57301;50.328;8.542;2022-12-29T09:39:47;5.20;;;3.13;;
69970;SDS011;57301;50.328;8.542;2022-12-29T09:47:43;3.63;;;2.30;;
69970;SDS011;57301;50.328;8.542;2022-12-29T09:52:50;6.78;;;3.70;;
69970;SDS011;57301;50.328;8.542;2022-12-29T09:55:27;5.90;;;2.75;;
69970;SDS011;57301;50.328;8.542;2022-12-29T09:58:13;4.70;;;2.10;;
69970;SDS011;57301;50.328;8.542;2022-12-29T10:01:28;6.20;;;2.35;;
69970;SDS011;57301;50.328;8.542;2022-12-29T10:03:56;4.68;;;2.00;;
69970;SDS011;57301;50.328;8.542;2022-12-29T10:17:35;4.75;;;2.30;;
69970;SDS011;57301;50.328;8.542;2022-12-29T10:25:32;4.23;;;2.30;;
69970;SDS011;57301;50.328;8.542;2022-12-29T10:28:05;2.75;;;1.50;;
69970;SDS011;57301;50.328;8.542;2022-12-29T10:30:41;4.50;;;2.20;;
69970;SDS011;57301;50.328;8.542;2022-12-29T10:33:11;3.50;;;1.98;;
69970;SDS011;57301;50.328;8.542;2022-12-29T10:35:42;5.57;;;2.05;;
69970;SDS011;57301;50.328;8.542;2022-12-29T10:43:46;3.50;;;1.60;;
69970;SDS011;57301;50.328;8.542;2022-12-29T10:46:35;3.67;;;1.52;;
69970;SDS011;57301;50.328;8.542;2022-12-29T10:49:04;2.97;;;1.55;;
69970;SDS011;57301;50.328;8.542;2022-12-29T10:51:33;4.10;;;1.83;;
69970;SDS011;57301;50.328;8.542;2022-12-29T10:54:11;4.55;;;1.85;;
69970;SDS011;57301;50.328;8.542;2022-12-29T10:56:46;4.40;;;1.65;;
69970;SDS011;57301;50.328;8.542;2022-12-29T10:59:25;3.22;;;1.50;;
69970;SDS011;57301;50.328;8.542;2022-12-29T11:04:43;3.33;;;1.63;;
69970;SDS011;57301;50.328;8.542;2022-12-29T11:07:18;3.72;;;1.85;;
69970;SDS011;57301;50.328;8.542;2022-12-29T11:09:52;4.10;;;1.67;;
69970;SDS011;57301;50.328;8.542;2022-12-29T11:12:24;3.30;;;1.30;;
69970;SDS011;57301;50.328;8.542;2022-12-29T11:15:00;2.80;;;1.13;;
69970;SDS011;57301;50.328;8.542;2022-12-29T11:17:47;4.13;;;1.20;;
69970;SDS011;57301;50.328;8.542;2022-12-29T11:23:26;2.97;;;1.10;;
69970;SDS011;57301;50.328;8.542;2022-12-29T11:26:05;3.42;;;1.00;;
69970;SDS011;57301;50.328;8.542;2022-12-29T11:28:37;2.13;;;0.90;;
69970;SDS011;57301;50.328;8.542;2022-12-29T11:31:05;4.17;;;1.00;;
69970;SDS011;57301;50.328;8.542;2022-12-29T11:33:34;3.47;;;1.00;;
69970;SDS011;57301;50.328;8.542;2022-12-29T11:36:16;3.70;;;1.00;;
69970;SDS011;57301;50.328;8.542;2022-12-29T11:38:47;2.22;;;0.90;;
69970;SDS011;57301;50.328;8.542;2022-12-29T11:41:23;4.05;;;1.10;;
69970;SDS011;57301;50.328;8.542;2022-12-29T11:43:59;3.40;;;1.00;;
69970;SDS011;57301;50.328;8.542;2022-12-29T11:46:34;2.10;;;0.93;;
69970;SDS011;57301;50.328;8.542;2022-12-29T11:49:04;3.15;;;1.00;;
69970;SDS011;57301;50.328;8.542;2022-12-29T11:54:09;3.38;;;1.10;;
69970;SDS011;57301;50.328;8.542;2022-12-29T11:56:45;4.87;;;1.00;;
69970;SDS011;57301;50.328;8.542;2022-12-29T12:01:53;2.88;;;0.90;;
69970;SDS011;57301;50.328;8.542;2022-12-29T12:04:21;3.28;;;1.00;;
69970;SDS011;57301;50.328;8.542;2022-12-29T12:06:58;2.20;;;1.00;;
69970;SDS011;57301;50.328;8.542;2022-12-29T12:09:32;5.97;;;1.00;;
69970;SDS011;57301;50.328;8.542;2022-12-29T12:12:03;3.33;;;1.02;;
69970;SDS011;57301;50.328;8.542;2022-12-29T12:14:36;5.22;;;1.00;;
69970;SDS011;57301;50.328;8.542;2022-12-29T12:17:14;2.78;;;0.90;;
69970;SDS011;57301;50.328;8.542;2022-12-29T12:19:53;3.10;;;0.98;;
69970;SDS011;57301;50.328;8.542;2022-12-29T12:22:32;2.97;;;1.10;;
69970;SDS011;57301;50.328;8.542;2022-12-29T12:28:11;3.65;;;1.25;;
69970;SDS011;57301;50.328;8.542;2022-12-29T12:30:46;5.40;;;1.35;;
69970;SDS011;57301;50.328;8.542;2022-12-29T12:33:18;3.65;;;1.20;;
69970;SDS011;57301;50.328;8.542;2022-12-29T12:41:23;3.42;;;1.20;;
69970;SDS011;57301;50.328;8.542;2022-12-29T12:49:53;3.20;;;1.00;;
69970;SDS011;57301;50.328;8.542;2022-12-29T12:52:46;6.03;;;1.25;;
69970;SDS011;57301;50.328;8.542;2022-12-29T12:55:36;4.68;;;1.30;;
69970;SDS011;57301;50.328;8.542;2022-12-29T13:01:16;4.57;;;1.48;;
69970;SDS011;57301;50.328;8.542;2022-12-29T13:07:07;3.28;;;0.93;;
69970;SDS011;57301;50.328;8.542;2022-12-29T13:10:00;4.32;;;1.50;;
69970;SDS011;57301;50.328;8.542;2022-12-29T13:18:26;4.70;;;1.20;;
69970;SDS011;57301;50.328;8.542;2022-12-29T13:26:50;4.05;;;1.00;;
69970;SDS011;57301;50.328;8.542;2022-12-29T13:29:23;5.20;;;1.40;;
69970;SDS011;57301;50.328;8.542;2022-12-29T13:31:58;17.27;;;3.83;;
69970;SDS011;57301;50.328;8.542;2022-12-29T13:37:20;6.15;;;2.45;;
69970;SDS011;57301;50.328;8.542;2022-12-29T13:39:53;5.70;;;1.63;;
69970;SDS011;57301;50.328;8.542;2022-12-29T13:42:23;4.03;;;1.27;;
69970;SDS011;57301;50.328;8.542;2022-12-29T13:47:35;3.95;;;1.10;;
69970;SDS011;57301;50.328;8.542;2022-12-29T13:50:06;4.97;;;1.30;;
69970;SDS011;57301;50.328;8.542;2022-12-29T13:55:55;3.10;;;1.38;;
69970;SDS011;57301;50.328;8.542;2022-12-29T13:58:38;3.83;;;1.10;;
69970;SDS011;57301;50.328;8.542;2022-12-29T14:03:57;3.83;;;1.27;;
69970;SDS011;57301;50.328;8.542;2022-12-29T14:06:27;5.68;;;1.50;;
69970;SDS011;57301;50.328;8.542;2022-12-29T14:09:04;2.88;;;1.10;;
69970;SDS011;57301;50.328;8.542;2022-12-29T14:11:32;2.40;;;1.07;;
69970;SDS011;57301;50.328;8.542;2022-12-29T14:14:17;4.13;;;1.00;;
69970;SDS011;57301;50.328;8.542;2022-12-29T14:16:49;5.57;;;1.20;;
69970;SDS011;57301;50.328;8.542;2022-12-29T14:19:19;4.18;;;1.13;;
69970;SDS011;57301;50.328;8.542;2022-12-29T14:21:54;5.82;;;1.17;;
69970;SDS011;57301;50.328;8.542;2022-12-29T14:27:01;3.95;;;1.13;;
69970;SDS011;57301;50.328;8.542;2022-12-29T14:29:47;8.30;;;3.40;;
69970;SDS011;57301;50.328;8.542;2022-12-29T14:34:54;9.65;;;3.92;;
69970;SDS011;57301;50.328;8.542;2022-12-29T14:37:29;8.03;;;2.57;;
69970;SDS011;57301;50.328;8.542;2022-12-29T14:40:14;6.65;;;2.33;;
69970;SDS011;57301;50.328;8.542;2022-12-29T14:42:46;12.32;;;4.90;;
69970;SDS011;57301;50.328;8.542;2022-12-29T14:47:42;6.28;;;1.90;;
69970;SDS011;57301;50.328;8.542;2022-12-29T14:52:57;6.15;;;1.50;;
69970;SDS011;57301;50.328;8.542;2022-12-29T14:55:37;5.57;;;1.38;;
69970;SDS011;57301;50.328;8.542;2022-12-29T14:58:12;4.40;;;1.35;;
69970;SDS011;57301;50.328;8.542;2022-12-29T15:00:46;9.02;;;1.90;;
69970;SDS011;57301;50.328;8.542;2022-12-29T15:06:05;4.72;;;1.63;;
69970;SDS011;57301;50.328;8.542;2022-12-29T15:08:36;3.63;;;1.35;;
69970;SDS011;57301;50.328;8.542;2022-12-29T15:13:44;4.47;;;1.50;;
69970;SDS011;57301;50.328;8.542;2022-12-29T15:19:02;7.28;;;1.83;;
69970;SDS011;57301;50.328;8.542;2022-12-29T15:21:29;4.43;;;1.50;;
69970;SDS011;57301;50.328;8.542;2022-12-29T15:23:58;5.07;;;1.65;;
69970;SDS011;57301;50.328;8.542;2022-12-29T15:26:36;4.93;;;2.08;;
69970;SDS011;57301;50.328;8.542;2022-12-29T15:29:04;5.30;;;1.60;;
69970;SDS011;57301;50.328;8.542;2022-12-29T15:31:31;4.70;;;1.77;;
69970;SDS011;57301;50.328;8.542;2022-12-29T15:34:10;6.53;;;1.83;;
69970;SDS011;57301;50.328;8.542;2022-12-29T15:36:39;7.45;;;2.53;;
69970;SDS011;57301;50.328;8.542;2022-12-29T15:42:02;5.97;;;1.90;;
69970;SDS011;57301;50.328;8.542;2022-12-29T15:44:39;5.97;;;2.40;;
69970;SDS011;57301;50.328;8.542;2022-12-29T15:47:18;11.57;;;5.90;;
69970;SDS011;57301;50.328;8.542;2022-12-29T15:49:47;8.93;;;2.97;;
69970;SDS011;57301;50.328;8.542;2022-12-29T15:52:19;4.53;;;1.63;;
69970;SDS011;57301;50.328;8.542;2022-12-29T15:54:50;4.67;;;1.83;;
69970;SDS011;57301;50.328;8.542;2022-12-29T15:57:23;5.10;;;2.03;;
69970;SDS011;57301;50.328;8.542;2022-12-29T15:59:53;8.02;;;2.10;;
69970;SDS011;57301;50.328;8.542;2022-12-29T16:02:23;4.63;;;2.20;;
69970;SDS011;57301;50.328;8.542;2022-12-29T16:04:51;3.65;;;1.80;;
69970;SDS011;57301;50.328;8.542;2022-12-29T16:07:38;4.50;;;1.77;;
69970;SDS011;57301;50.328;8.542;2022-12-29T16:10:46;3.80;;;1.50;;
69970;SDS011;57301;50.328;8.542;2022-12-29T16:16:16;10.27;;;3.58;;
69970;SDS011;57301;50.328;8.542;2022-12-29T16:18:46;15.68;;;6.10;;
69970;SDS011;57301;50.328;8.542;2022-12-29T16:21:28;7.30;;;3.67;;
69970;SDS011;57301;50.328;8.542;2022-12-29T16:24:00;4.20;;;1.70;;
69970;SDS011;57301;50.328;8.542;2022-12-29T16:26:31;8.52;;;2.90;;
69970;SDS011;57301;50.328;8.542;2022-12-29T16:28:58;4.28;;;1.90;;
69970;SDS011;57301;50.328;8.542;2022-12-29T16:31:34;3.95;;;1.50;;
69970;SDS011;57301;50.328;8.542;2022-12-29T16:37:04;4.22;;;1.30;;
69970;SDS011;57301;50.328;8.542;2022-12-29T16:39:51;5.32;;;1.60;;
69970;SDS011;57301;50.328;8.542;2022-12-29T16:50:31;5.13;;;1.75;;
69970;SDS011;57301;50.328;8.542;2022-12-29T16:53:00;9.68;;;2.30;;
69970;SDS011;57301;50.328;8.542;2022-12-29T16:55:28;8.65;;;2.33;;
69970;SDS011;57301;50.328;8.542;2022-12-29T16:57:55;8.02;;;2.10;;
69970;SDS011;57301;50.328;8.542;2022-12-29T17:00:29;9.03;;;2.70;;
69970;SDS011;57301;50.328;8.542;2022-12-29T17:03:00;10.18;;;3.15;;
69970;SDS011;57301;50.328;8.542;2022-12-29T17:05:29;6.25;;;3.42;;
69970;SDS011;57301;50.328;8.542;2022-12-29T17:07:56;9.65;;;3.17;;
69970;SDS011;57301;50.328;8.542;2022-12-29T17:10:27;10.02;;;3.95;;
69970;SDS011;57301;50.328;8.542;2022-12-29T17:13:14;8.80;;;2.90;;
69970;SDS011;57301;50.328;8.542;2022-12-29T17:15:40;7.32;;;2.50;;
69970;SDS011;57301;50.328;8.542;2022-12-29T17:18:07;5.40;;;2.67;;
69970;SDS011;57301;50.328;8.542;2022-12-29T17:20:39;7.95;;;2.53;;
69970;SDS011;57301;50.328;8.542;2022-12-29T17:23:11;5.82;;;2.67;;
69970;SDS011;57301;50.328;8.542;2022-12-29T17:25:49;6.87;;;3.40;;
69970;SDS011;57301;50.328;8.542;2022-12-29T17:28:20;6.95;;;3.10;;
69970;SDS011;57301;50.328;8.542;2022-12-29T17:30:50;9.32;;;2.60;;
69970;SDS011;57301;50.328;8.542;2022-12-29T17:33:18;8.38;;;2.95;;
69970;SDS011;57301;50.328;8.542;2022-12-29T17:35:46;10.02;;;3.67;;
69970;SDS011;57301;50.328;8.542;2022-12-29T17:38:21;7.40;;;3.57;;
69970;SDS011;57301;50.328;8.542;2022-12-29T17:40:50;8.18;;;3.03;;
69970;SDS011;57301;50.328;8.542;2022-12-29T17:43:17;8.55;;;2.78;;
69970;SDS011;57301;50.328;8.542;2022-12-29T17:45:49;9.90;;;3.08;;
69970;SDS011;57301;50.328;8.542;2022-12-29T17:48:19;9.30;;;3.70;;